createdAt,value
2022-12-12T00:01:27.461Z,48.83
2022-12-12T00:03:55.944Z,36.67
2022-12-12T00:06:25.244Z,40.17
2022-12-12T00:08:53.507Z,38.57
2022-12-12T00:11:23.202Z,43.53
2022-12-12T00:13:52.803Z,37.80
2022-12-12T00:16:21.523Z,39.57
2022-12-12T00:18:51.505Z,40.37
2022-12-12T00:21:22.274Z,43.63
2022-12-12T00:23:50.812Z,40.77
2022-12-12T00:26:22.077Z,41.57
2022-12-12T00:28:50.492Z,44.27
2022-12-12T00:31:19.018Z,41.10
2022-12-12T00:33:50.016Z,44.73
2022-12-12T00:36:21.777Z,38.20
2022-12-12T00:38:50.285Z,40.70
2022-12-12T00:41:18.431Z,42.10
2022-12-12T00:43:46.676Z,39.30
2022-12-12T00:46:15.606Z,44.13
2022-12-12T00:48:43.897Z,42.20
2022-12-12T00:51:17.506Z,38.30
2022-12-12T00:53:47.546Z,38.73
2022-12-12T00:56:16.543Z,46.93
2022-12-12T00:58:44.819Z,42.53
2022-12-12T01:01:15.957Z,43.10
2022-12-12T01:03:45.038Z,41.70
2022-12-12T01:06:13.633Z,44.37
2022-12-12T01:08:42.176Z,47.80
2022-12-12T01:11:12.951Z,40.93
2022-12-12T01:13:42.413Z,39.40
2022-12-12T01:16:11.331Z,42.00
2022-12-12T01:18:40.850Z,39.37
2022-12-12T01:21:11.126Z,41.63
2022-12-12T01:23:41.160Z,41.73
2022-12-12T01:26:12.383Z,39.57
2022-12-12T01:28:40.752Z,42.07
2022-12-12T01:31:10.374Z,46.90
2022-12-12T01:33:38.909Z,41.73
2022-12-12T01:36:07.984Z,42.63
2022-12-12T01:38:37.881Z,44.63
2022-12-12T01:41:06.265Z,43.53
2022-12-12T01:43:35.832Z,41.93
2022-12-12T01:46:33.803Z,42.97
2022-12-12T01:49:07.142Z,42.83
2022-12-12T01:51:35.599Z,39.67
2022-12-12T01:54:08.448Z,43.87
2022-12-12T01:56:38.795Z,43.90
2022-12-12T01:59:12.011Z,37.50
2022-12-12T02:01:41.218Z,46.93
2022-12-12T02:04:11.205Z,41.67
2022-12-12T02:06:41.525Z,46.53
2022-12-12T02:09:13.104Z,45.63
2022-12-12T02:11:45.560Z,47.40
2022-12-12T02:14:17.686Z,54.17
2022-12-12T02:17:19.132Z,51.50
2022-12-12T02:20:26.121Z,49.03
2022-12-12T02:23:20.255Z,48.33
2022-12-12T02:26:20.537Z,41.30
2022-12-12T02:29:16.804Z,49.10
2022-12-12T02:31:52.478Z,50.87
2022-12-12T02:34:30.934Z,46.37
2022-12-12T02:37:07.523Z,46.03
2022-12-12T02:39:44.928Z,45.40
2022-12-12T02:42:24.182Z,48.67
2022-12-12T02:44:58.037Z,49.07
2022-12-12T02:47:31.926Z,50.10
2022-12-12T02:50:08.088Z,55.23
2022-12-12T02:52:37.308Z,47.97
2022-12-12T02:55:06.142Z,49.60
2022-12-12T02:57:34.314Z,45.93
2022-12-12T03:00:05.514Z,49.30
2022-12-12T03:03:16.520Z,49.53
2022-12-12T03:06:09.003Z,52.97
2022-12-12T03:08:51.189Z,51.50
2022-12-12T03:11:31.205Z,51.50
2022-12-12T03:14:04.360Z,54.40
2022-12-12T03:16:38.643Z,49.77
2022-12-12T03:19:13.802Z,50.43
2022-12-12T03:21:47.609Z,52.57
2022-12-12T03:24:22.987Z,49.00
2022-12-12T03:26:57.047Z,52.20
2022-12-12T03:29:29.314Z,47.87
2022-12-12T03:32:04.453Z,47.57
2022-12-12T03:34:38.988Z,51.83
2022-12-12T03:37:11.862Z,54.00
2022-12-12T03:39:43.870Z,55.47
2022-12-12T03:42:17.009Z,52.90
2022-12-12T03:44:49.512Z,44.77
2022-12-12T03:47:22.847Z,47.47
2022-12-12T03:49:55.972Z,41.70
2022-12-12T03:52:29.973Z,46.53
2022-12-12T03:55:03.672Z,52.83
2022-12-12T03:57:36.125Z,42.00
2022-12-12T04:00:07.050Z,48.37
2022-12-12T04:02:46.040Z,40.90
2022-12-12T04:05:21.377Z,45.37
2022-12-12T04:07:54.787Z,46.47
2022-12-12T04:10:43.760Z,46.10
2022-12-12T04:13:16.770Z,41.43
2022-12-12T04:15:56.650Z,50.50
2022-12-12T04:18:35.124Z,42.20
2022-12-12T04:21:37.386Z,39.97
2022-12-12T04:24:17.018Z,44.77
2022-12-12T04:26:50.361Z,44.07
2022-12-12T04:29:32.416Z,44.10
2022-12-12T04:32:06.975Z,44.00
2022-12-12T04:34:40.451Z,42.87
2022-12-12T04:37:15.273Z,42.37
2022-12-12T04:39:45.673Z,43.70
2022-12-12T04:42:18.287Z,44.80
2022-12-12T04:44:48.396Z,43.07
2022-12-12T04:47:17.622Z,44.23
2022-12-12T04:49:47.825Z,42.60
2022-12-12T04:52:19.521Z,41.00
2022-12-12T04:54:51.994Z,43.40
2022-12-12T04:57:25.412Z,43.57
2022-12-12T04:59:53.648Z,41.43
2022-12-12T05:02:31.690Z,52.23
2022-12-12T05:05:03.850Z,47.20
2022-12-12T05:07:39.991Z,44.03
2022-12-12T05:10:11.876Z,41.47
2022-12-12T05:12:46.699Z,50.77
2022-12-12T05:15:16.707Z,48.20
2022-12-12T05:17:47.185Z,46.50
2022-12-12T05:20:16.359Z,46.93
2022-12-12T05:22:45.890Z,43.87
2022-12-12T05:25:14.755Z,53.80
2022-12-12T05:27:43.110Z,46.27
2022-12-12T05:30:12.428Z,48.40
2022-12-12T05:32:40.873Z,49.17
2022-12-12T05:35:10.646Z,43.90
2022-12-12T05:37:38.897Z,46.43
2022-12-12T05:40:13.877Z,41.40
2022-12-12T05:42:42.488Z,45.53
2022-12-12T05:45:12.509Z,37.93
2022-12-12T05:47:41.063Z,43.97
2022-12-12T05:50:10.406Z,43.13
2022-12-12T05:52:38.653Z,48.37
2022-12-12T05:55:07.672Z,42.70
2022-12-12T05:57:37.237Z,43.90
2022-12-12T06:00:06.936Z,45.07
2022-12-12T06:02:35.299Z,39.10
2022-12-12T06:05:03.508Z,42.83
2022-12-12T06:07:31.674Z,47.20
2022-12-12T06:09:59.774Z,39.37
2022-12-12T06:12:27.920Z,42.60
2022-12-12T06:14:57.522Z,43.97
2022-12-12T06:17:31.223Z,45.17
2022-12-12T06:20:01.507Z,40.23
2022-12-12T06:22:32.760Z,37.27
2022-12-12T06:25:00.888Z,41.90
2022-12-12T06:27:29.165Z,41.70
2022-12-12T06:29:58.832Z,38.03
2022-12-12T06:32:26.977Z,37.77
2022-12-12T06:34:55.085Z,40.97
2022-12-12T06:37:23.227Z,39.23
2022-12-12T06:39:51.492Z,41.10
2022-12-12T06:42:19.731Z,43.23
2022-12-12T06:44:47.958Z,36.50
2022-12-12T06:47:17.491Z,38.07
2022-12-12T06:49:45.587Z,45.00
2022-12-12T06:52:14.593Z,40.50
2022-12-12T06:54:42.786Z,40.40
2022-12-12T06:57:10.874Z,40.90
2022-12-12T06:59:39.232Z,38.90
2022-12-12T07:02:08.154Z,37.13
2022-12-12T07:04:40.106Z,42.33
2022-12-12T07:07:08.235Z,40.43
2022-12-12T07:09:36.670Z,41.33
2022-12-12T07:12:05.207Z,40.67
2022-12-12T07:14:33.310Z,36.27
2022-12-12T07:17:01.454Z,35.63
2022-12-12T07:19:29.598Z,37.57
2022-12-12T07:22:02.853Z,40.17
2022-12-12T07:24:34.189Z,41.23
2022-12-12T07:27:02.316Z,35.57
2022-12-12T07:29:30.518Z,37.47
2022-12-12T07:31:58.610Z,34.90
2022-12-12T07:34:26.844Z,41.63
2022-12-12T07:36:59.305Z,33.70
2022-12-12T07:39:32.398Z,38.73
2022-12-12T07:42:00.885Z,34.67
2022-12-12T07:44:29.034Z,35.03
2022-12-12T07:46:59.282Z,35.67
2022-12-12T07:49:29.217Z,36.30
2022-12-12T07:51:57.635Z,43.17
2022-12-12T07:54:25.783Z,36.40
2022-12-12T07:56:55.933Z,33.60
2022-12-12T07:59:24.130Z,37.30
2022-12-12T08:01:52.384Z,37.83
2022-12-12T08:04:23.809Z,36.03
2022-12-12T08:06:58.365Z,29.37
2022-12-12T08:09:30.080Z,38.23
2022-12-12T08:12:00.312Z,37.07
2022-12-12T08:14:28.717Z,34.30
2022-12-12T08:16:57.410Z,35.90
2022-12-12T08:19:25.540Z,36.27
2022-12-12T08:21:53.723Z,34.80
2022-12-12T08:24:21.924Z,37.97
2022-12-12T08:26:51.447Z,34.23
2022-12-12T08:29:21.245Z,34.47
2022-12-12T08:31:49.667Z,34.10
2022-12-12T08:34:19.089Z,33.83
2022-12-12T08:36:47.473Z,30.90
2022-12-12T08:39:17.093Z,32.47
2022-12-12T08:41:48.022Z,36.40
2022-12-12T08:44:17.520Z,31.93
2022-12-12T08:46:48.057Z,33.90
2022-12-12T08:49:17.846Z,33.30
2022-12-12T08:51:46.111Z,36.33
2022-12-12T08:54:14.548Z,34.70
2022-12-12T08:56:42.829Z,36.10
2022-12-12T08:59:11.001Z,30.60
2022-12-12T09:01:39.273Z,32.53
2022-12-12T09:04:08.964Z,39.63
2022-12-12T09:06:37.114Z,33.30
2022-12-12T09:09:05.417Z,30.50
2022-12-12T09:11:33.627Z,35.03
2022-12-12T09:14:01.794Z,35.30
2022-12-12T09:16:30.184Z,35.77
2022-12-12T09:18:58.534Z,37.13
2022-12-12T09:21:28.075Z,36.60
2022-12-12T09:23:56.217Z,36.47
2022-12-12T09:26:24.423Z,35.60
2022-12-12T09:28:52.582Z,41.60
2022-12-12T09:31:21.551Z,34.63
2022-12-12T09:33:50.479Z,34.30
2022-12-12T09:36:18.711Z,32.83
2022-12-12T09:38:48.147Z,36.40
2022-12-12T09:41:19.153Z,37.70
2022-12-12T09:43:55.460Z,36.80
2022-12-12T09:46:31.095Z,34.00
2022-12-12T09:49:08.825Z,35.20
2022-12-12T09:51:37.521Z,38.70
2022-12-12T09:54:07.423Z,38.53
2022-12-12T09:56:42.516Z,34.17
2022-12-12T09:59:16.780Z,35.17
2022-12-12T10:01:53.666Z,32.83
2022-12-12T10:04:28.772Z,36.73
2022-12-12T10:07:02.395Z,29.30
2022-12-12T10:09:45.796Z,31.60
2022-12-12T10:12:17.997Z,34.03
2022-12-12T10:14:49.597Z,34.67
2022-12-12T10:17:21.523Z,33.00
2022-12-12T10:19:52.677Z,34.77
2022-12-12T10:22:29.883Z,35.13
2022-12-12T10:25:04.459Z,30.93
2022-12-12T10:27:32.913Z,32.73
2022-12-12T10:30:15.286Z,36.80
2022-12-12T10:33:09.609Z,29.90
2022-12-12T10:35:44.411Z,34.40
2022-12-12T10:38:27.601Z,36.50
2022-12-12T10:41:05.319Z,37.07
2022-12-12T10:43:41.026Z,32.63
2022-12-12T10:46:26.003Z,30.50
2022-12-12T10:48:55.432Z,33.17
2022-12-12T10:51:27.569Z,33.83
2022-12-12T10:53:55.689Z,37.40
2022-12-12T10:56:28.965Z,37.90
2022-12-12T10:58:59.451Z,36.23
2022-12-12T11:04:28.427Z,34.47
2022-12-12T11:06:57.395Z,36.97
2022-12-12T11:09:27.465Z,38.87
2022-12-12T11:12:02.526Z,33.33
2022-12-12T11:14:34.855Z,36.90
2022-12-12T11:17:03.172Z,35.70
2022-12-12T11:19:38.783Z,34.70
2022-12-12T11:22:07.267Z,38.60
2022-12-12T11:24:44.988Z,38.73
2022-12-12T11:27:22.860Z,40.00
2022-12-12T11:29:53.933Z,42.17
2022-12-12T11:32:25.474Z,32.20
2022-12-12T11:34:56.364Z,37.67
2022-12-12T11:37:27.822Z,30.87
2022-12-12T11:39:58.137Z,36.20
2022-12-12T11:42:30.238Z,34.97
2022-12-12T11:45:01.303Z,34.17
2022-12-12T11:47:35.894Z,35.40
2022-12-12T11:50:19.239Z,39.13
2022-12-12T11:52:48.381Z,34.40
2022-12-12T11:55:19.004Z,33.03
2022-12-12T11:58:03.975Z,31.47
2022-12-12T12:00:41.051Z,33.40
2022-12-12T12:03:37.834Z,37.43
2022-12-12T12:06:30.468Z,32.87
2022-12-12T12:09:23.358Z,32.80
2022-12-12T12:12:01.426Z,38.13
2022-12-12T12:14:46.973Z,34.67
2022-12-12T12:17:27.038Z,33.13
2022-12-12T12:20:04.009Z,29.10
2022-12-12T12:22:45.283Z,30.57
2022-12-12T12:25:28.967Z,28.17
2022-12-12T12:28:17.517Z,27.83
2022-12-12T12:30:59.398Z,31.10
2022-12-12T12:33:38.904Z,29.17
2022-12-12T12:36:20.919Z,31.97
2022-12-12T12:38:58.021Z,27.00
2022-12-12T12:41:54.387Z,25.80
2022-12-12T12:44:36.739Z,24.10
2022-12-12T12:47:14.551Z,21.00
2022-12-12T12:49:47.324Z,23.80
2022-12-12T12:52:20.760Z,23.67
2022-12-12T12:54:50.059Z,23.03
2022-12-12T12:57:25.421Z,23.40
2022-12-12T12:59:58.715Z,28.60
2022-12-12T13:02:35.690Z,28.70
2022-12-12T13:05:08.491Z,25.87
2022-12-12T13:07:47.285Z,24.57
2022-12-12T13:10:22.223Z,26.43
2022-12-12T13:12:56.816Z,23.60
2022-12-12T13:15:29.200Z,25.33
2022-12-12T13:18:02.325Z,25.30
2022-12-12T13:20:34.786Z,26.73
2022-12-12T13:23:20.983Z,21.60
2022-12-12T13:25:57.756Z,22.90
2022-12-12T13:28:29.715Z,23.17
2022-12-12T13:31:36.989Z,22.13
2022-12-12T13:34:09.413Z,25.40
2022-12-12T13:36:40.511Z,23.77
2022-12-12T13:39:23.251Z,23.63
2022-12-12T13:41:56.803Z,20.87
2022-12-12T13:44:42.653Z,22.53
2022-12-12T13:47:31.413Z,28.67
2022-12-12T13:50:07.821Z,21.00
2022-12-12T13:52:41.012Z,19.73
2022-12-12T13:55:23.867Z,23.63
2022-12-12T13:58:17.384Z,23.50
2022-12-12T14:00:46.102Z,23.93
2022-12-12T14:03:27.900Z,25.10
2022-12-12T14:06:10.656Z,22.60
2022-12-12T14:08:48.183Z,18.30
2022-12-12T14:11:33.508Z,17.60
2022-12-12T14:14:09.780Z,21.00
2022-12-12T14:16:39.001Z,18.80
2022-12-12T14:19:19.092Z,27.17
2022-12-12T14:21:49.723Z,17.87
2022-12-12T14:24:47.953Z,23.20
2022-12-12T14:27:16.755Z,17.70
2022-12-12T14:29:45.700Z,21.90
2022-12-12T14:32:30.887Z,21.03
2022-12-12T14:35:10.571Z,24.73
2022-12-12T14:37:51.808Z,21.10
2022-12-12T14:40:22.966Z,22.43
2022-12-12T14:43:18.619Z,23.80
2022-12-12T14:45:55.203Z,22.10
2022-12-12T14:48:25.342Z,27.27
2022-12-12T14:51:01.025Z,23.90
2022-12-12T14:53:33.402Z,27.53
2022-12-12T14:56:04.392Z,22.97
2022-12-12T14:58:36.917Z,25.50
2022-12-12T15:01:07.063Z,22.50
2022-12-12T15:03:39.053Z,25.93
2022-12-12T15:06:30.200Z,26.83
2022-12-12T15:09:10.960Z,32.07
2022-12-12T15:11:39.457Z,27.93
2022-12-12T15:14:07.663Z,31.60
2022-12-12T15:16:47.959Z,25.77
2022-12-12T15:19:19.295Z,29.27
2022-12-12T15:21:48.749Z,26.50
2022-12-12T15:24:24.346Z,33.13
2022-12-12T15:26:55.182Z,26.97
2022-12-12T15:29:27.399Z,28.20
2022-12-12T15:32:01.955Z,32.43
2022-12-12T15:34:37.680Z,28.30
2022-12-12T15:37:27.548Z,30.73
2022-12-12T15:40:17.515Z,28.13
2022-12-12T15:42:48.962Z,24.90
2022-12-12T15:45:27.077Z,30.23
2022-12-12T15:47:56.491Z,28.40
2022-12-12T15:50:26.592Z,27.20
2022-12-12T15:53:08.131Z,27.00
2022-12-12T15:55:37.793Z,30.90
2022-12-12T15:58:06.085Z,28.73
2022-12-12T16:00:39.855Z,27.80
2022-12-12T16:03:22.774Z,28.73
2022-12-12T16:06:04.086Z,29.13
2022-12-12T16:08:38.709Z,30.67
2022-12-12T16:11:33.611Z,32.17
2022-12-12T16:14:01.929Z,30.20
2022-12-12T16:16:49.852Z,27.97
2022-12-12T16:19:37.174Z,27.90
2022-12-12T16:22:08.349Z,27.50
2022-12-12T16:24:47.437Z,31.60
2022-12-12T16:27:17.072Z,27.67
2022-12-12T16:29:46.039Z,32.60
2022-12-12T16:32:16.132Z,33.27
2022-12-12T16:34:44.929Z,31.90
2022-12-12T16:37:18.178Z,31.30
2022-12-12T16:39:46.486Z,33.10
2022-12-12T16:42:18.278Z,34.20
2022-12-12T16:44:46.829Z,30.80
2022-12-12T16:47:17.466Z,31.43
2022-12-12T16:49:46.202Z,37.33
2022-12-12T16:52:15.356Z,38.87
2022-12-12T16:54:51.122Z,34.27
2022-12-12T16:57:22.571Z,34.93
2022-12-12T16:59:53.478Z,41.17
2022-12-12T17:02:23.781Z,36.83
2022-12-12T17:04:52.745Z,45.07
2022-12-12T17:07:21.003Z,45.03
2022-12-12T17:09:49.241Z,34.67
2022-12-12T17:12:18.939Z,37.70
2022-12-12T17:14:48.445Z,36.00
2022-12-12T17:17:16.564Z,32.50
2022-12-12T17:19:44.677Z,37.50
2022-12-12T17:22:12.787Z,36.37
2022-12-12T17:24:41.027Z,42.43
2022-12-12T17:27:11.914Z,35.53
2022-12-12T17:29:40.347Z,40.60
2022-12-12T17:32:09.817Z,43.73
2022-12-12T17:34:38.338Z,44.00
2022-12-12T17:37:06.839Z,45.83
2022-12-12T17:39:35.166Z,44.73
2022-12-12T17:42:03.308Z,43.10
2022-12-12T17:44:31.794Z,38.33
2022-12-12T17:46:59.927Z,36.60
2022-12-12T17:49:29.419Z,43.27
2022-12-12T17:51:57.567Z,38.60
2022-12-12T17:54:25.726Z,31.87
2022-12-12T17:56:53.855Z,35.30
2022-12-12T17:59:22.034Z,34.37
2022-12-12T18:01:53.915Z,34.80
2022-12-12T18:04:27.667Z,36.63
2022-12-12T18:06:57.999Z,34.07
2022-12-12T18:09:26.498Z,36.37
2022-12-12T18:11:54.630Z,35.60
2022-12-12T18:14:22.789Z,37.10
2022-12-12T18:16:52.228Z,33.30
2022-12-12T18:19:20.961Z,38.03
2022-12-12T18:22:05.350Z,30.20
2022-12-12T18:24:34.954Z,32.43
2022-12-12T18:27:03.922Z,32.70
2022-12-12T18:29:32.260Z,36.40
2022-12-12T18:32:00.765Z,39.20
2022-12-12T18:34:28.922Z,42.03
2022-12-12T18:36:57.367Z,41.10
2022-12-12T18:39:26.684Z,38.27
2022-12-12T18:41:56.174Z,32.93
2022-12-12T18:44:24.724Z,38.77
2022-12-12T18:46:53.136Z,33.63
2022-12-12T18:49:21.496Z,32.73
2022-12-12T18:51:49.696Z,34.83
2022-12-12T18:54:21.134Z,37.63
2022-12-12T18:56:49.337Z,28.47
2022-12-12T18:59:18.897Z,34.93
2022-12-12T19:01:48.173Z,36.47
2022-12-12T19:04:22.846Z,31.67
2022-12-12T19:06:53.438Z,35.63
2022-12-12T19:09:22.147Z,37.77
2022-12-12T19:11:53.322Z,36.00
2022-12-12T19:14:40.425Z,36.40
2022-12-12T19:17:18.327Z,36.67
2022-12-12T19:19:47.995Z,35.27
2022-12-12T19:22:43.752Z,38.30
2022-12-12T19:25:04.523Z,40.20
2022-12-12T19:27:32.715Z,39.73
2022-12-12T19:30:02.428Z,42.33
2022-12-12T19:32:30.655Z,40.10
2022-12-12T19:34:59.777Z,38.83
2022-12-12T19:37:28.392Z,35.47
2022-12-12T19:39:56.979Z,43.00
2022-12-12T19:42:25.409Z,38.97
2022-12-12T19:44:53.990Z,34.43
2022-12-12T19:47:23.471Z,36.60
2022-12-12T19:49:51.667Z,38.27
2022-12-12T19:52:19.877Z,36.10
2022-12-12T19:54:48.032Z,37.40
2022-12-12T19:57:16.201Z,40.37
2022-12-12T19:59:44.402Z,38.30
2022-12-12T20:02:13.143Z,39.90
2022-12-12T20:04:42.647Z,41.00
2022-12-12T20:07:11.182Z,36.10
2022-12-12T20:09:39.602Z,36.93
2022-12-12T20:12:07.847Z,35.80
2022-12-12T20:14:37.740Z,36.43
2022-12-12T20:17:05.994Z,34.40
2022-12-12T20:19:34.162Z,37.70
2022-12-12T20:22:04.181Z,30.87
2022-12-12T20:24:34.589Z,37.00
2022-12-12T20:27:04.426Z,33.47
2022-12-12T20:29:32.671Z,36.77
2022-12-12T20:32:01.656Z,37.33
2022-12-12T20:34:32.134Z,36.50
2022-12-12T20:37:00.580Z,36.57
2022-12-12T20:39:30.103Z,39.93
2022-12-12T20:41:58.290Z,39.33
2022-12-12T20:44:29.013Z,37.23
2022-12-12T20:47:00.333Z,38.17
2022-12-12T20:49:30.673Z,41.43
2022-12-12T20:52:00.121Z,38.40
2022-12-12T20:54:31.249Z,34.47
2022-12-12T20:57:01.461Z,37.40
2022-12-12T20:59:31.223Z,37.57
2022-12-12T21:01:59.770Z,37.60
2022-12-12T21:04:28.794Z,34.43
2022-12-12T21:06:56.998Z,37.63
2022-12-12T21:09:26.659Z,37.30
2022-12-12T21:11:58.644Z,35.37
2022-12-12T21:14:28.062Z,39.60
2022-12-12T21:16:56.720Z,33.00
2022-12-12T21:19:26.015Z,35.03
2022-12-12T21:21:56.283Z,33.17
2022-12-12T21:24:25.511Z,44.70
2022-12-12T21:26:56.906Z,33.20
2022-12-12T21:29:31.259Z,32.63
2022-12-12T21:32:01.063Z,38.30
2022-12-12T21:34:29.476Z,40.10
2022-12-12T21:36:59.269Z,33.30
2022-12-12T21:39:29.831Z,39.90
2022-12-12T21:41:58.060Z,33.60
2022-12-12T21:44:34.495Z,34.80
2022-12-12T21:47:03.992Z,35.50
2022-12-12T21:49:33.901Z,33.20
2022-12-12T21:52:05.011Z,37.03
2022-12-12T21:54:33.862Z,36.43
2022-12-12T21:57:02.871Z,32.23
2022-12-12T21:59:32.771Z,31.63
2022-12-12T22:02:04.331Z,28.70
2022-12-12T22:04:32.773Z,36.50
2022-12-12T22:07:01.142Z,36.47
2022-12-12T22:09:29.455Z,32.00
2022-12-12T22:12:04.332Z,32.03
2022-12-12T22:14:35.976Z,25.77
2022-12-12T22:17:05.682Z,25.57
2022-12-12T22:19:34.624Z,29.10
2022-12-12T22:22:02.876Z,29.57
2022-12-12T22:24:31.127Z,25.03
2022-12-12T22:26:59.302Z,25.93
2022-12-12T22:29:27.517Z,25.97
2022-12-12T22:31:57.310Z,26.77
2022-12-12T22:34:28.876Z,28.10
2022-12-12T22:36:57.116Z,28.03
2022-12-12T22:39:26.993Z,29.53
2022-12-12T22:41:56.040Z,27.33
2022-12-12T22:44:25.888Z,27.43
2022-12-12T22:46:55.677Z,35.03
2022-12-12T22:49:27.020Z,26.87
2022-12-12T22:51:55.879Z,29.90
2022-12-12T22:54:24.175Z,30.47
2022-12-12T22:56:52.289Z,31.93
2022-12-12T22:59:20.434Z,33.73
2022-12-12T23:01:48.542Z,33.30
2022-12-12T23:04:16.747Z,28.03
2022-12-12T23:06:46.370Z,33.43
2022-12-12T23:09:16.644Z,36.80
2022-12-12T23:11:45.885Z,30.23
2022-12-12T23:14:16.522Z,34.00
2022-12-12T23:16:45.340Z,32.17
2022-12-12T23:19:16.217Z,28.70
2022-12-12T23:21:46.095Z,25.90
2022-12-12T23:24:14.783Z,24.40
2022-12-12T23:26:43.253Z,29.53
2022-12-12T23:29:16.315Z,32.83
2022-12-12T23:31:45.173Z,26.93
2022-12-12T23:34:17.650Z,24.70
2022-12-12T23:36:47.763Z,27.60
2022-12-12T23:39:16.308Z,24.97
2022-12-12T23:41:45.229Z,25.33
2022-12-12T23:44:15.479Z,28.63
2022-12-12T23:46:44.760Z,24.77
2022-12-12T23:49:16.644Z,27.13
2022-12-12T23:51:48.116Z,25.10
2022-12-12T23:54:18.438Z,25.00
2022-12-12T23:56:47.579Z,29.07
2022-12-12T23:59:19.566Z,23.20
